Terminal Aerodrome Forecast
Issued by NWS

Home | Current Version | Previous Version | Graphics & Text | Print | Product List | Glossary On
Versions: 1 2 3 4 5 6 7 8 9 10 11 12 13 14 15 16 17 18 19 20
000
FTUS43 KTOP 170700 AAA
TAFFOE
TAF AMD
KFOE 170743Z 1708/1806 36007KT P6SM BKN015
     FM171500 09004KT P6SM BKN150
     FM180300 12005KT 4SM BR VCSH BKN045=

USA.gov is the U.S. government's official web portal to all federal, state and local government web resources and services.